CA-0473 weather

Burnaby Field
Ontario, Canada

Public forecast

Using degrees Celsius for public forecast. Weather courtesy of forecast.io.

Closest aviation weather report (METAR) to Burnaby Field

Closest report is Niagara District Airport, 19.6 nm (36.2 km) NNE. Retrieved 2019/10/18 17:00 UTC (27 minutes ago):

CYSN 181700Z 31009KT 15SM BKN030 09/02 A3003 RMK SC5 SLP171

Closest aviation forecast (TAF) to Burnaby Field

Closest forecast is Niagara District Airport, 19.6 nm (36.2 km) NNE. Retrieved 2019/10/18 13:42 UTC (4 hours ago):

TAF TAF CYSN 181238Z 1813/1901 31010G20KT P6SM BKN025 TEMPO 1813/1815 BKN020 FM181500 30010G20KT P6SM BKN025 FM181800 29008KT P6SM SCT030 BECMG 1823/1901 22006KT RMK NXT FCST BY 182000Z